sensor_id;sensor_type;location;lat;lon;timestamp;pressure;altitude;pressure_sealevel;temperature;humidity
75497;BME280;64074;47.540;19.072;2023-09-19T00:02:20;100028.34;;;24.06;52.61
75497;BME280;64074;47.540;19.072;2023-09-19T00:05:28;100042.59;;;24.18;52.76
75497;BME280;64074;47.540;19.072;2023-09-19T00:08:31;100039.88;;;24.33;52.26
75497;BME280;64074;47.540;19.072;2023-09-19T00:11:36;100034.28;;;24.18;52.76
75497;BME280;64074;47.540;19.072;2023-09-19T00:14:41;100034.31;;;24.40;52.18
75497;BME280;64074;47.540;19.072;2023-09-19T00:17:44;100033.53;;;24.32;52.40
75497;BME280;64074;47.540;19.072;2023-09-19T00:20:47;100022.06;;;24.41;52.26
75497;BME280;64074;47.540;19.072;2023-09-19T00:23:52;100029.94;;;24.07;53.33
75497;BME280;64074;47.540;19.072;2023-09-19T00:26:58;100019.66;;;24.14;53.13
75497;BME280;64074;47.540;19.072;2023-09-19T00:30:03;100031.47;;;23.90;53.94
75497;BME280;64074;47.540;19.072;2023-09-19T00:33:07;100028.31;;;23.88;54.03
75497;BME280;64074;47.540;19.072;2023-09-19T00:36:11;100033.84;;;23.88;54.20
75497;BME280;64074;47.540;19.072;2023-09-19T00:39:14;100027.13;;;23.89;53.87
75497;BME280;64074;47.540;19.072;2023-09-19T00:42:21;100022.78;;;23.88;54.23
75497;BME280;64074;47.540;19.072;2023-09-19T00:45:24;100031.09;;;23.91;54.29
75497;BME280;64074;47.540;19.072;2023-09-19T00:48:28;100030.28;;;23.91;54.04
75497;BME280;64074;47.540;19.072;2023-09-19T00:51:31;100030.31;;;24.23;53.56
75497;BME280;64074;47.540;19.072;2023-09-19T00:54:35;100022.00;;;24.27;53.21
75497;BME280;64074;47.540;19.072;2023-09-19T00:57:40;100016.06;;;24.03;54.01
75497;BME280;64074;47.540;19.072;2023-09-19T01:00:44;100014.09;;;24.07;53.88
75497;BME280;64074;47.540;19.072;2023-09-19T01:03:48;100017.28;;;24.13;53.84
75497;BME280;64074;47.540;19.072;2023-09-19T01:06:51;100012.16;;;24.29;53.38
75497;BME280;64074;47.540;19.072;2023-09-19T01:09:57;100018.44;;;24.22;53.87
75497;BME280;64074;47.540;19.072;2023-09-19T01:13:31;100018.81;;;23.82;54.99
75497;BME280;64074;47.540;19.072;2023-09-19T01:17:03;100021.63;;;24.14;54.22
75497;BME280;64074;47.540;19.072;2023-09-19T01:24:16;100020.00;;;23.99;54.47
75497;BME280;64074;47.540;19.072;2023-09-19T01:27:30;100018.03;;;23.92;55.12
75497;BME280;64074;47.540;19.072;2023-09-19T01:30:39;100008.97;;;24.06;54.63
75497;BME280;64074;47.540;19.072;2023-09-19T01:34:02;100013.72;;;24.05;54.75
75497;BME280;64074;47.540;19.072;2023-09-19T01:37:11;100007.38;;;24.15;54.66
75497;BME280;64074;47.540;19.072;2023-09-19T01:40:16;100008.16;;;24.12;54.62
75497;BME280;64074;47.540;19.072;2023-09-19T01:43:31;100003.41;;;24.09;55.04
75497;BME280;64074;47.540;19.072;2023-09-19T01:46:41;100014.06;;;23.97;55.31
75497;BME280;64074;47.540;19.072;2023-09-19T01:50:07;99995.47;;;23.90;55.48
75497;BME280;64074;47.540;19.072;2023-09-19T01:53:23;99994.69;;;23.97;55.52
75497;BME280;64074;47.540;19.072;2023-09-19T02:00:28;100003.00;;;23.89;55.83
75497;BME280;64074;47.540;19.072;2023-09-19T02:03:35;100003.78;;;23.90;56.05
75497;BME280;64074;47.540;19.072;2023-09-19T02:06:40;100005.78;;;23.89;56.18
75497;BME280;64074;47.540;19.072;2023-09-19T02:09:45;100010.91;;;23.87;56.35
75497;BME280;64074;47.540;19.072;2023-09-19T02:12:48;100009.28;;;23.76;56.74
75497;BME280;64074;47.540;19.072;2023-09-19T02:15:51;100009.31;;;23.83;56.30
75497;BME280;64074;47.540;19.072;2023-09-19T02:18:54;100014.03;;;23.79;56.81
75497;BME280;64074;47.540;19.072;2023-09-19T02:21:57;100009.31;;;23.93;56.55
75497;BME280;64074;47.540;19.072;2023-09-19T02:25:00;100001.03;;;24.01;56.29
75497;BME280;64074;47.540;19.072;2023-09-19T02:28:07;99998.28;;;24.08;55.94
75497;BME280;64074;47.540;19.072;2023-09-19T02:31:12;100003.00;;;24.00;56.15
75497;BME280;64074;47.540;19.072;2023-09-19T02:34:16;99999.84;;;23.98;56.40
75497;BME280;64074;47.540;19.072;2023-09-19T02:37:19;100003.00;;;23.93;56.99
75497;BME280;64074;47.540;19.072;2023-09-19T02:40:22;100002.16;;;23.75;57.13
75497;BME280;64074;47.540;19.072;2023-09-19T02:43:29;100008.53;;;23.82;57.10
75497;BME280;64074;47.540;19.072;2023-09-19T02:46:36;100002.97;;;23.75;57.41
75497;BME280;64074;47.540;19.072;2023-09-19T02:49:42;100000.56;;;23.63;57.91
75497;BME280;64074;47.540;19.072;2023-09-19T02:52:46;99999.00;;;23.69;58.07
75497;BME280;64074;47.540;19.072;2023-09-19T02:55:52;99999.00;;;23.62;58.17
75497;BME280;64074;47.540;19.072;2023-09-19T02:58:58;99997.00;;;23.62;58.16
75497;BME280;64074;47.540;19.072;2023-09-19T03:02:05;99999.31;;;23.53;58.06
75497;BME280;64074;47.540;19.072;2023-09-19T03:05:09;99990.28;;;23.63;58.23
75497;BME280;64074;47.540;19.072;2023-09-19T03:08:14;99998.19;;;23.61;58.79
75497;BME280;64074;47.540;19.072;2023-09-19T03:11:23;99998.13;;;23.51;58.46
75497;BME280;64074;47.540;19.072;2023-09-19T03:14:31;99994.56;;;23.50;58.40
75497;BME280;64074;47.540;19.072;2023-09-19T03:17:43;99987.06;;;23.51;58.43
75497;BME280;64074;47.540;19.072;2023-09-19T03:20:56;99997.31;;;23.43;58.39
75497;BME280;64074;47.540;19.072;2023-09-19T03:23:59;99996.13;;;23.44;58.81
75497;BME280;64074;47.540;19.072;2023-09-19T03:27:02;99992.59;;;23.47;58.45
75497;BME280;64074;47.540;19.072;2023-09-19T03:30:07;100002.84;;;23.40;58.87
75497;BME280;64074;47.540;19.072;2023-09-19T03:33:17;99997.31;;;23.47;59.03
75497;BME280;64074;47.540;19.072;2023-09-19T03:36:21;99996.53;;;23.43;58.80
75497;BME280;64074;47.540;19.072;2023-09-19T03:39:24;99994.56;;;23.43;59.17
75497;BME280;64074;47.540;19.072;2023-09-19T03:42:28;100002.06;;;23.39;59.40
75497;BME280;64074;47.540;19.072;2023-09-19T03:45:33;100000.47;;;23.38;59.21
75497;BME280;64074;47.540;19.072;2023-09-19T03:48:37;100000.44;;;23.31;59.67
75497;BME280;64074;47.540;19.072;2023-09-19T03:51:41;100007.97;;;23.34;59.66
75497;BME280;64074;47.540;19.072;2023-09-19T03:54:44;100000.44;;;23.31;59.89
75497;BME280;64074;47.540;19.072;2023-09-19T03:57:50;100004.34;;;23.23;60.15
75497;BME280;64074;47.540;19.072;2023-09-19T04:00:57;100001.66;;;23.33;59.43
75497;BME280;64074;47.540;19.072;2023-09-19T04:04:03;100010.28;;;23.28;60.16
75497;BME280;64074;47.540;19.072;2023-09-19T04:07:13;100022.59;;;23.31;60.03
75497;BME280;64074;47.540;19.072;2023-09-19T04:10:17;100018.63;;;23.32;59.97
75497;BME280;64074;47.540;19.072;2023-09-19T04:13:20;100022.59;;;23.31;59.97
75497;BME280;64074;47.540;19.072;2023-09-19T04:16:24;100027.63;;;23.11;60.96
75497;BME280;64074;47.540;19.072;2023-09-19T04:19:27;100027.56;;;23.00;61.47
75497;BME280;64074;47.540;19.072;2023-09-19T04:22:31;100030.53;;;22.78;61.72
75497;BME280;64074;47.540;19.072;2023-09-19T04:25:34;100033.44;;;22.95;61.68
75497;BME280;64074;47.540;19.072;2023-09-19T04:28:40;100028.66;;;22.85;61.32
75497;BME280;64074;47.540;19.072;2023-09-19T04:31:43;100031.94;;;23.05;61.25
75497;BME280;64074;47.540;19.072;2023-09-19T04:34:48;100036.63;;;22.97;60.81
75497;BME280;64074;47.540;19.072;2023-09-19T04:37:54;100034.75;;;23.19;60.33
75497;BME280;64074;47.540;19.072;2023-09-19T04:40:58;100044.66;;;23.20;59.45
75497;BME280;64074;47.540;19.072;2023-09-19T04:44:05;100048.97;;;23.14;59.57
75497;BME280;64074;47.540;19.072;2023-09-19T04:47:08;100059.63;;;23.12;59.20
75497;BME280;64074;47.540;19.072;2023-09-19T04:50:11;100057.25;;;23.07;59.43
75497;BME280;64074;47.540;19.072;2023-09-19T04:53:15;100055.28;;;23.11;59.27
75497;BME280;64074;47.540;19.072;2023-09-19T04:56:20;100061.09;;;22.95;59.51
75497;BME280;64074;47.540;19.072;2023-09-19T04:59:27;100071.00;;;23.00;59.16
75497;BME280;64074;47.540;19.072;2023-09-19T05:02:31;100065.44;;;22.93;59.70
75497;BME280;64074;47.540;19.072;2023-09-19T05:05:34;100070.63;;;23.01;59.42
75497;BME280;64074;47.540;19.072;2023-09-19T05:08:38;100070.94;;;22.89;59.57
75497;BME280;64074;47.540;19.072;2023-09-19T05:11:42;100083.00;;;22.70;60.43
75497;BME280;64074;47.540;19.072;2023-09-19T05:14:46;100088.69;;;22.40;61.51
75497;BME280;64074;47.540;19.072;2023-09-19T05:17:51;100081.16;;;22.37;61.88
75497;BME280;64074;47.540;19.072;2023-09-19T05:21:02;100092.69;;;22.47;62.02
75497;BME280;64074;47.540;19.072;2023-09-19T05:24:05;100103.34;;;22.48;62.12
75497;BME280;64074;47.540;19.072;2023-09-19T05:27:16;100112.44;;;22.08;63.26
75497;BME280;64074;47.540;19.072;2023-09-19T05:30:20;100113.97;;;21.72;64.35
75497;BME280;64074;47.540;19.072;2023-09-19T05:33:23;100118.16;;;21.59;64.69
75497;BME280;64074;47.540;19.072;2023-09-19T05:36:27;100121.78;;;21.66;64.44
75497;BME280;64074;47.540;19.072;2023-09-19T05:39:33;100113.50;;;21.10;65.74
75497;BME280;64074;47.540;19.072;2023-09-19T05:42:36;100122.88;;;21.05;66.04
75497;BME280;64074;47.540;19.072;2023-09-19T05:45:41;100112.53;;;20.99;66.25
75497;BME280;64074;47.540;19.072;2023-09-19T05:48:44;100111.28;;;20.93;66.46
75497;BME280;64074;47.540;19.072;2023-09-19T05:51:53;100114.91;;;21.00;66.04
75497;BME280;64074;47.540;19.072;2023-09-19T05:54:58;100122.63;;;21.14;65.75
75497;BME280;64074;47.540;19.072;2023-09-19T05:58:01;100123.66;;;21.06;65.84
75497;BME280;64074;47.540;19.072;2023-09-19T06:01:08;100130.56;;;20.93;66.35
75497;BME280;64074;47.540;19.072;2023-09-19T06:04:19;100140.38;;;20.67;67.47
75497;BME280;64074;47.540;19.072;2023-09-19T06:07:23;100130.78;;;20.57;67.63
75497;BME280;64074;47.540;19.072;2023-09-19T06:10:29;100145.22;;;20.74;67.26
75497;BME280;64074;47.540;19.072;2023-09-19T06:13:36;100136.72;;;20.82;67.30
75497;BME280;64074;47.540;19.072;2023-09-19T06:16:43;100148.97;;;20.85;68.05
75497;BME280;64074;47.540;19.072;2023-09-19T06:19:46;100146.16;;;20.58;69.51
75497;BME280;64074;47.540;19.072;2023-09-19T06:22:50;100157.91;;;20.36;70.01
75497;BME280;64074;47.540;19.072;2023-09-19T06:25:55;100158.06;;;20.43;68.82
75497;BME280;64074;47.540;19.072;2023-09-19T06:29:03;100158.34;;;20.57;68.53
75497;BME280;64074;47.540;19.072;2023-09-19T06:32:08;100161.38;;;20.52;68.70
75497;BME280;64074;47.540;19.072;2023-09-19T06:35:13;100165.97;;;20.45;68.92
75497;BME280;64074;47.540;19.072;2023-09-19T06:38:18;100173.50;;;20.48;69.04
75497;BME280;64074;47.540;19.072;2023-09-19T06:41:22;100168.63;;;20.83;68.65
75497;BME280;64074;47.540;19.072;2023-09-19T06:44:28;100181.31;;;20.46;69.23
75497;BME280;64074;47.540;19.072;2023-09-19T06:47:32;100181.81;;;20.51;69.24
75497;BME280;64074;47.540;19.072;2023-09-19T06:50:36;100176.47;;;20.39;70.13
75497;BME280;64074;47.540;19.072;2023-09-19T06:53:41;100185.97;;;20.22;71.27
75497;BME280;64074;47.540;19.072;2023-09-19T06:56:46;100196.25;;;20.45;70.91
75497;BME280;64074;47.540;19.072;2023-09-19T07:00:08;100192.63;;;20.21;71.60
75497;BME280;64074;47.540;19.072;2023-09-19T07:03:20;100190.59;;;19.80;73.53
75497;BME280;64074;47.540;19.072;2023-09-19T07:06:28;100205.16;;;19.80;73.88
75497;BME280;64074;47.540;19.072;2023-09-19T07:09:33;100192.19;;;20.00;73.04
75497;BME280;64074;47.540;19.072;2023-09-19T07:12:39;100215.97;;;19.89;73.56
75497;BME280;64074;47.540;19.072;2023-09-19T07:15:46;100214.09;;;20.12;73.65
75497;BME280;64074;47.540;19.072;2023-09-19T07:18:49;100226.09;;;19.85;73.85
75497;BME280;64074;47.540;19.072;2023-09-19T07:21:53;100229.47;;;19.78;73.30
75497;BME280;64074;47.540;19.072;2023-09-19T07:24:58;100234.28;;;20.01;72.87
75497;BME280;64074;47.540;19.072;2023-09-19T07:28:02;100232.03;;;19.87;73.28
75497;BME280;64074;47.540;19.072;2023-09-19T07:31:06;100233.56;;;20.04;72.67
75497;BME280;64074;47.540;19.072;2023-09-19T07:34:16;100237.22;;;19.73;73.66
75497;BME280;64074;47.540;19.072;2023-09-19T07:37:20;100246.19;;;19.70;73.89
75497;BME280;64074;47.540;19.072;2023-09-19T07:40:29;100245.50;;;19.92;73.29
75497;BME280;64074;47.540;19.072;2023-09-19T07:43:37;100244.06;;;19.98;73.43
75497;BME280;64074;47.540;19.072;2023-09-19T07:46:46;100258.09;;;19.58;75.58
75497;BME280;64074;47.540;19.072;2023-09-19T07:49:55;100251.53;;;19.31;77.29
75497;BME280;64074;47.540;19.072;2023-09-19T07:53:08;100253.41;;;19.43;76.93
75497;BME280;64074;47.540;19.072;2023-09-19T07:56:18;100262.00;;;19.57;76.76
75497;BME280;64074;47.540;19.072;2023-09-19T07:59:27;100262.25;;;19.52;77.18
75497;BME280;64074;47.540;19.072;2023-09-19T08:02:35;100259.34;;;19.45;77.83
75497;BME280;64074;47.540;19.072;2023-09-19T08:05:44;100273.47;;;19.59;76.64
75497;BME280;64074;47.540;19.072;2023-09-19T08:08:52;100267.75;;;19.83;77.08
75497;BME280;64074;47.540;19.072;2023-09-19T08:11:59;100279.84;;;19.98;76.46
75497;BME280;64074;47.540;19.072;2023-09-19T08:15:06;100289.16;;;19.58;76.51
75497;BME280;64074;47.540;19.072;2023-09-19T08:18:12;100287.16;;;19.90;75.91
75497;BME280;64074;47.540;19.072;2023-09-19T08:21:16;100301.19;;;19.85;76.36
75497;BME280;64074;47.540;19.072;2023-09-19T08:24:20;100303.59;;;19.87;76.54
75497;BME280;64074;47.540;19.072;2023-09-19T08:27:24;100311.22;;;19.46;77.40
75497;BME280;64074;47.540;19.072;2023-09-19T08:30:31;100322.56;;;19.76;76.76
75497;BME280;64074;47.540;19.072;2023-09-19T08:33:36;100318.03;;;19.52;75.98
75497;BME280;64074;47.540;19.072;2023-09-19T08:36:47;100319.00;;;19.91;75.38
75497;BME280;64074;47.540;19.072;2023-09-19T08:40:08;100321.13;;;19.98;74.73
75497;BME280;64074;47.540;19.072;2023-09-19T08:43:26;100335.13;;;20.09;75.26
75497;BME280;64074;47.540;19.072;2023-09-19T08:46:41;100345.53;;;20.00;74.43
75497;BME280;64074;47.540;19.072;2023-09-19T08:50:26;100352.91;;;19.95;74.77
75497;BME280;64074;47.540;19.072;2023-09-19T08:53:42;100348.41;;;19.72;75.50
75497;BME280;64074;47.540;19.072;2023-09-19T08:57:07;100361.81;;;19.89;75.19
75497;BME280;64074;47.540;19.072;2023-09-19T09:00:29;100366.94;;;19.75;75.42
75497;BME280;64074;47.540;19.072;2023-09-19T09:03:44;100379.91;;;19.90;75.69
75497;BME280;64074;47.540;19.072;2023-09-19T09:06:56;100375.16;;;20.06;75.13
75497;BME280;64074;47.540;19.072;2023-09-19T09:10:02;100369.25;;;19.88;74.41
75497;BME280;64074;47.540;19.072;2023-09-19T09:13:09;100359.56;;;19.94;74.56
75497;BME280;64074;47.540;19.072;2023-09-19T09:16:14;100338.41;;;20.14;73.81
75497;BME280;64074;47.540;19.072;2023-09-19T09:19:23;100321.88;;;20.69;72.19
75497;BME280;64074;47.540;19.072;2023-09-19T09:22:29;100338.03;;;20.70;71.41
75497;BME280;64074;47.540;19.072;2023-09-19T09:25:52;100342.25;;;21.06;73.20
75497;BME280;64074;47.540;19.072;2023-09-19T09:42:47;100317.63;;;20.36;73.72
75497;BME280;64074;47.540;19.072;2023-09-19T09:46:35;100319.59;;;20.55;74.57
75497;BME280;64074;47.540;19.072;2023-09-19T10:00:53;100351.16;;;19.87;76.54
75497;BME280;64074;47.540;19.072;2023-09-19T10:04:27;100344.88;;;20.06;74.62
75497;BME280;64074;47.540;19.072;2023-09-19T10:07:41;100339.41;;;20.61;74.19
75497;BME280;64074;47.540;19.072;2023-09-19T10:10:55;100350.69;;;20.36;72.87
75497;BME280;64074;47.540;19.072;2023-09-19T10:14:16;100344.56;;;20.43;73.34
75497;BME280;64074;47.540;19.072;2023-09-19T10:17:22;100338.78;;;21.09;72.14
75497;BME280;64074;47.540;19.072;2023-09-19T10:20:31;100340.47;;;20.95;71.16
75497;BME280;64074;47.540;19.072;2023-09-19T10:23:36;100336.06;;;21.32;70.08
75497;BME280;64074;47.540;19.072;2023-09-19T10:26:43;100346.97;;;21.25;69.71
75497;BME280;64074;47.540;19.072;2023-09-19T10:29:58;100343.97;;;21.34;69.91
75497;BME280;64074;47.540;19.072;2023-09-19T10:33:04;100350.06;;;21.69;68.85
75497;BME280;64074;47.540;19.072;2023-09-19T10:36:12;100361.44;;;21.64;68.53
75497;BME280;64074;47.540;19.072;2023-09-19T10:39:16;100354.44;;;21.70;68.46
75497;BME280;64074;47.540;19.072;2023-09-19T10:42:25;100358.59;;;21.84;68.11
75497;BME280;64074;47.540;19.072;2023-09-19T10:45:34;100360.63;;;21.87;67.66
75497;BME280;64074;47.540;19.072;2023-09-19T10:48:40;100369.66;;;21.61;67.29
75497;BME280;64074;47.540;19.072;2023-09-19T10:51:55;100362.88;;;21.81;66.97
75497;BME280;64074;47.540;19.072;2023-09-19T10:55:04;100369.06;;;21.74;67.44
75497;BME280;64074;47.540;19.072;2023-09-19T10:58:12;100364.84;;;21.80;67.03
75497;BME280;64074;47.540;19.072;2023-09-19T11:01:46;100374.44;;;22.13;67.51
75497;BME280;64074;47.540;19.072;2023-09-19T11:05:26;100369.97;;;22.05;66.09
75497;BME280;64074;47.540;19.072;2023-09-19T11:08:54;100375.25;;;21.91;66.46
75497;BME280;64074;47.540;19.072;2023-09-19T11:12:04;100381.63;;;22.18;65.83
75497;BME280;64074;47.540;19.072;2023-09-19T11:19:06;100396.44;;;22.62;64.01
75497;BME280;64074;47.540;19.072;2023-09-19T11:22:21;100387.34;;;22.92;61.67
75497;BME280;64074;47.540;19.072;2023-09-19T11:25:41;100384.25;;;23.34;60.89
75497;BME280;64074;47.540;19.072;2023-09-19T11:29:26;100381.09;;;23.36;59.75
75497;BME280;64074;47.540;19.072;2023-09-19T11:36:35;100378.22;;;23.62;58.54
75497;BME280;64074;47.540;19.072;2023-09-19T11:40:07;100373.72;;;23.94;56.09
75497;BME280;64074;47.540;19.072;2023-09-19T11:43:31;100375.13;;;23.30;56.42
75497;BME280;64074;47.540;19.072;2023-09-19T11:46:54;100366.59;;;23.93;56.23
75497;BME280;64074;47.540;19.072;2023-09-19T11:50:01;100363.94;;;23.56;56.87
75497;BME280;64074;47.540;19.072;2023-09-19T11:58:52;100339.28;;;23.92;55.87
75497;BME280;64074;47.540;19.072;2023-09-19T12:02:45;100324.78;;;24.13;55.39
75497;BME280;64074;47.540;19.072;2023-09-19T12:08:08;100343.16;;;24.42;54.02
75497;BME280;64074;47.540;19.072;2023-09-19T12:11:20;100350.13;;;25.02;53.71
75497;BME280;64074;47.540;19.072;2023-09-19T12:14:32;100359.16;;;24.84;53.55
75497;BME280;64074;47.540;19.072;2023-09-19T12:20:43;100360.72;;;24.78;54.15
75497;BME280;64074;47.540;19.072;2023-09-19T12:27:08;100359.69;;;25.43;51.80
75497;BME280;64074;47.540;19.072;2023-09-19T12:30:13;100363.63;;;25.14;52.28
75497;BME280;64074;47.540;19.072;2023-09-19T12:33:29;100368.44;;;25.42;50.66
75497;BME280;64074;47.540;19.072;2023-09-19T12:36:44;100361.19;;;26.48;49.72
75497;BME280;64074;47.540;19.072;2023-09-19T12:40:44;100366.53;;;27.60;46.12
75497;BME280;64074;47.540;19.072;2023-09-19T12:43:50;100374.34;;;27.24;47.42
75497;BME280;64074;47.540;19.072;2023-09-19T12:47:13;100368.81;;;26.12;49.47
75497;BME280;64074;47.540;19.072;2023-09-19T12:56:16;100374.38;;;28.58;43.61
75497;BME280;64074;47.540;19.072;2023-09-19T12:59:29;100369.13;;;29.52;42.47
75497;BME280;64074;47.540;19.072;2023-09-19T13:06:38;100365.84;;;28.38;43.89
75497;BME280;64074;47.540;19.072;2023-09-19T13:10:08;100369.88;;;27.93;44.85
75497;BME280;64074;47.540;19.072;2023-09-19T13:13:23;100364.63;;;29.58;41.89
75497;BME280;64074;47.540;19.072;2023-09-19T13:21:45;100370.41;;;29.70;41.68
75497;BME280;64074;47.540;19.072;2023-09-19T13:24:53;100358.09;;;30.54;39.64
75497;BME280;64074;47.540;19.072;2023-09-19T13:27:57;100353.75;;;30.10;39.33
75497;BME280;64074;47.540;19.072;2023-09-19T13:31:02;100359.00;;;30.08;39.48
75497;BME280;64074;47.540;19.072;2023-09-19T13:34:06;100377.09;;;29.53;40.29
75497;BME280;64074;47.540;19.072;2023-09-19T13:37:20;100364.47;;;30.55;39.12
75497;BME280;64074;47.540;19.072;2023-09-19T13:41:18;100354.84;;;30.56;37.94
75497;BME280;64074;47.540;19.072;2023-09-19T13:44:26;100367.34;;;30.31;38.69
75497;BME280;64074;47.540;19.072;2023-09-19T13:47:30;100379.41;;;29.82;39.43
75497;BME280;64074;47.540;19.072;2023-09-19T13:50:36;100372.66;;;30.85;37.47
75497;BME280;64074;47.540;19.072;2023-09-19T13:53:46;100380.09;;;30.92;37.86
75497;BME280;64074;47.540;19.072;2023-09-19T13:56:49;100385.81;;;31.41;36.53
75497;BME280;64074;47.540;19.072;2023-09-19T13:59:52;100398.63;;;30.03;38.69
75497;BME280;64074;47.540;19.072;2023-09-19T14:02:58;100397.88;;;29.76;39.45
75497;BME280;64074;47.540;19.072;2023-09-19T14:06:05;100389.31;;;31.45;37.14
75497;BME280;64074;47.540;19.072;2023-09-19T14:09:17;100393.94;;;30.40;37.84
75497;BME280;64074;47.540;19.072;2023-09-19T14:12:24;100390.28;;;31.02;36.97
75497;BME280;64074;47.540;19.072;2023-09-19T14:15:28;100394.34;;;30.18;37.60
75497;BME280;64074;47.540;19.072;2023-09-19T14:18:36;100396.28;;;31.20;37.37
75497;BME280;64074;47.540;19.072;2023-09-19T14:21:39;100394.84;;;31.32;36.87
75497;BME280;64074;47.540;19.072;2023-09-19T14:24:42;100385.56;;;31.15;37.18
75497;BME280;64074;47.540;19.072;2023-09-19T14:27:47;100404.00;;;29.13;40.71
75497;BME280;64074;47.540;19.072;2023-09-19T14:30:51;100396.13;;;30.72;38.76
75497;BME280;64074;47.540;19.072;2023-09-19T14:33:55;100397.72;;;30.10;39.47
75497;BME280;64074;47.540;19.072;2023-09-19T14:37:02;100389.06;;;31.03;38.23
75497;BME280;64074;47.540;19.072;2023-09-19T14:40:06;100387.34;;;30.30;39.28
75497;BME280;64074;47.540;19.072;2023-09-19T14:43:12;100387.97;;;32.14;35.64
75497;BME280;64074;47.540;19.072;2023-09-19T14:46:15;100384.09;;;31.79;36.26
75497;BME280;64074;47.540;19.072;2023-09-19T14:49:18;100387.38;;;30.70;38.14
75497;BME280;64074;47.540;19.072;2023-09-19T14:52:21;100388.31;;;30.63;37.51
75497;BME280;64074;47.540;19.072;2023-09-19T14:55:24;100389.84;;;32.05;35.89
75497;BME280;64074;47.540;19.072;2023-09-19T14:58:33;100405.91;;;28.89;41.33
75497;BME280;64074;47.540;19.072;2023-09-19T15:01:37;100394.03;;;27.58;43.48
75497;BME280;64074;47.540;19.072;2023-09-19T15:04:44;100384.63;;;26.54;45.73
75497;BME280;64074;47.540;19.072;2023-09-19T15:07:49;100389.00;;;26.48;46.29
75497;BME280;64074;47.540;19.072;2023-09-19T15:10:52;100398.59;;;25.58;48.28
75497;BME280;64074;47.540;19.072;2023-09-19T15:13:56;100395.75;;;25.22;48.30
75497;BME280;64074;47.540;19.072;2023-09-19T15:16:59;100396.97;;;25.50;48.11
75497;BME280;64074;47.540;19.072;2023-09-19T15:20:03;100406.88;;;25.29;48.03
75497;BME280;64074;47.540;19.072;2023-09-19T15:23:09;100409.63;;;25.22;48.67
75497;BME280;64074;47.540;19.072;2023-09-19T15:26:15;100415.94;;;25.05;48.87
75497;BME280;64074;47.540;19.072;2023-09-19T15:29:25;100413.78;;;24.77;49.88
75497;BME280;64074;47.540;19.072;2023-09-19T15:32:29;100416.63;;;24.88;49.60
75497;BME280;64074;47.540;19.072;2023-09-19T15:35:33;100418.53;;;24.69;50.00
75497;BME280;64074;47.540;19.072;2023-09-19T15:42:01;100427.84;;;24.36;50.73
75497;BME280;64074;47.540;19.072;2023-09-19T15:45:05;100434.78;;;24.74;50.58
75497;BME280;64074;47.540;19.072;2023-09-19T15:48:09;100441.09;;;24.71;50.48
75497;BME280;64074;47.540;19.072;2023-09-19T15:51:12;100432.06;;;24.81;50.24
75497;BME280;64074;47.540;19.072;2023-09-19T15:54:17;100445.16;;;24.84;50.23
75497;BME280;64074;47.540;19.072;2023-09-19T15:57:23;100443.97;;;24.85;50.45
75497;BME280;64074;47.540;19.072;2023-09-19T16:00:26;100440.66;;;24.59;50.48
75497;BME280;64074;47.540;19.072;2023-09-19T16:03:30;100440.09;;;24.32;51.74
75497;BME280;64074;47.540;19.072;2023-09-19T16:06:34;100441.56;;;24.22;51.94
75497;BME280;64074;47.540;19.072;2023-09-19T16:09:38;100441.16;;;24.16;51.97
75497;BME280;64074;47.540;19.072;2023-09-19T16:12:40;100446.31;;;24.21;52.22
75497;BME280;64074;47.540;19.072;2023-09-19T16:15:43;100440.13;;;23.87;52.77
75497;BME280;64074;47.540;19.072;2023-09-19T16:18:53;100442.31;;;24.12;52.35
75497;BME280;64074;47.540;19.072;2023-09-19T16:22:01;100443.66;;;24.32;52.15
75497;BME280;64074;47.540;19.072;2023-09-19T16:25:04;100444.72;;;24.20;52.36
75497;BME280;64074;47.540;19.072;2023-09-19T16:28:08;100437.22;;;24.21;52.70
75497;BME280;64074;47.540;19.072;2023-09-19T16:31:11;100438.00;;;24.21;52.10
75497;BME280;64074;47.540;19.072;2023-09-19T16:34:14;100430.47;;;24.18;52.59
75497;BME280;64074;47.540;19.072;2023-09-19T16:37:17;100437.56;;;24.12;52.96
75497;BME280;64074;47.540;19.072;2023-09-19T16:40:22;100439.91;;;24.07;52.77
75497;BME280;64074;47.540;19.072;2023-09-19T16:43:31;100440.22;;;24.02;53.13
75497;BME280;64074;47.540;19.072;2023-09-19T16:46:53;100444.88;;;23.87;53.74
75497;BME280;64074;47.540;19.072;2023-09-19T16:50:02;100438.94;;;23.85;54.15
75497;BME280;64074;47.540;19.072;2023-09-19T16:53:13;100441.75;;;23.92;53.81
75497;BME280;64074;47.540;19.072;2023-09-19T16:56:20;100453.78;;;23.66;54.42
75497;BME280;64074;47.540;19.072;2023-09-19T16:59:44;100460.25;;;23.81;54.51
75497;BME280;64074;47.540;19.072;2023-09-19T17:02:48;100460.31;;;23.88;54.12
75497;BME280;64074;47.540;19.072;2023-09-19T17:05:59;100468.84;;;23.72;55.06
75497;BME280;64074;47.540;19.072;2023-09-19T17:09:02;100476.75;;;23.70;54.81
75497;BME280;64074;47.540;19.072;2023-09-19T17:12:06;100478.06;;;23.46;55.30
75497;BME280;64074;47.540;19.072;2023-09-19T17:15:09;100482.56;;;23.24;56.12
75497;BME280;64074;47.540;19.072;2023-09-19T17:18:13;100483.59;;;23.13;56.52
75497;BME280;64074;47.540;19.072;2023-09-19T17:21:17;100492.06;;;23.27;56.11
75497;BME280;64074;47.540;19.072;2023-09-19T17:24:20;100492.94;;;23.01;57.01
75497;BME280;64074;47.540;19.072;2023-09-19T17:27:24;100502.69;;;22.91;57.28